sensor_id;sensor_type;location;lat;lon;timestamp;P1;durP1;ratioP1;P2;durP2;ratioP2
52368;SDS011;38298;50.346;3.526;2023-09-07T00:01:57;7.13;;;2.60;;
52368;SDS011;38298;50.346;3.526;2023-09-07T00:04:23;3.30;;;2.67;;
52368;SDS011;38298;50.346;3.526;2023-09-07T00:06:49;5.88;;;3.15;;
52368;SDS011;38298;50.346;3.526;2023-09-07T00:09:15;7.78;;;2.03;;
52368;SDS011;38298;50.346;3.526;2023-09-07T00:11:44;6.00;;;2.60;;
52368;SDS011;38298;50.346;3.526;2023-09-07T00:14:10;4.15;;;2.70;;
52368;SDS011;38298;50.346;3.526;2023-09-07T00:16:36;6.57;;;2.47;;
52368;SDS011;38298;50.346;3.526;2023-09-07T00:19:03;5.03;;;2.83;;
52368;SDS011;38298;50.346;3.526;2023-09-07T00:21:29;6.15;;;2.78;;
52368;SDS011;38298;50.346;3.526;2023-09-07T00:23:55;3.40;;;2.45;;
52368;SDS011;38298;50.346;3.526;2023-09-07T00:26:21;3.42;;;2.58;;
52368;SDS011;38298;50.346;3.526;2023-09-07T00:28:47;5.50;;;2.63;;
52368;SDS011;38298;50.346;3.526;2023-09-07T00:31:13;4.35;;;2.72;;
52368;SDS011;38298;50.346;3.526;2023-09-07T00:33:39;4.18;;;2.60;;
52368;SDS011;38298;50.346;3.526;2023-09-07T00:36:05;7.90;;;2.70;;
52368;SDS011;38298;50.346;3.526;2023-09-07T00:38:31;7.30;;;2.88;;
52368;SDS011;38298;50.346;3.526;2023-09-07T00:40:57;4.15;;;2.70;;
52368;SDS011;38298;50.346;3.526;2023-09-07T00:43:23;4.50;;;2.78;;
52368;SDS011;38298;50.346;3.526;2023-09-07T00:45:49;7.95;;;3.20;;
52368;SDS011;38298;50.346;3.526;2023-09-07T00:48:16;4.28;;;2.90;;
52368;SDS011;38298;50.346;3.526;2023-09-07T00:50:42;3.00;;;2.58;;
52368;SDS011;38298;50.346;3.526;2023-09-07T00:53:08;5.05;;;3.13;;
52368;SDS011;38298;50.346;3.526;2023-09-07T00:55:34;4.47;;;3.03;;
52368;SDS011;38298;50.346;3.526;2023-09-07T00:58:02;4.35;;;2.75;;
52368;SDS011;38298;50.346;3.526;2023-09-07T01:00:28;5.57;;;3.50;;
52368;SDS011;38298;50.346;3.526;2023-09-07T01:02:54;6.97;;;3.47;;
52368;SDS011;38298;50.346;3.526;2023-09-07T01:05:32;5.53;;;3.50;;
52368;SDS011;38298;50.346;3.526;2023-09-07T01:08:00;4.05;;;2.95;;
52368;SDS011;38298;50.346;3.526;2023-09-07T01:10:28;5.65;;;3.60;;
52368;SDS011;38298;50.346;3.526;2023-09-07T01:12:54;8.02;;;3.40;;
52368;SDS011;38298;50.346;3.526;2023-09-07T01:15:20;8.93;;;3.58;;
52368;SDS011;38298;50.346;3.526;2023-09-07T01:17:46;8.30;;;3.55;;
52368;SDS011;38298;50.346;3.526;2023-09-07T01:20:13;6.63;;;3.65;;
52368;SDS011;38298;50.346;3.526;2023-09-07T01:22:41;3.63;;;2.70;;
52368;SDS011;38298;50.346;3.526;2023-09-07T01:25:08;8.50;;;3.45;;
52368;SDS011;38298;50.346;3.526;2023-09-07T01:27:34;7.88;;;3.13;;
52368;SDS011;38298;50.346;3.526;2023-09-07T01:30:01;9.95;;;3.50;;
52368;SDS011;38298;50.346;3.526;2023-09-07T01:32:28;8.13;;;3.15;;
52368;SDS011;38298;50.346;3.526;2023-09-07T01:34:55;7.38;;;3.28;;
52368;SDS011;38298;50.346;3.526;2023-09-07T01:37:22;8.95;;;3.55;;
52368;SDS011;38298;50.346;3.526;2023-09-07T01:39:48;8.38;;;3.92;;
52368;SDS011;38298;50.346;3.526;2023-09-07T01:42:15;7.75;;;3.40;;
52368;SDS011;38298;50.346;3.526;2023-09-07T01:44:41;10.10;;;3.67;;
52368;SDS011;38298;50.346;3.526;2023-09-07T01:47:08;7.95;;;3.65;;
52368;SDS011;38298;50.346;3.526;2023-09-07T01:49:34;8.77;;;3.85;;
52368;SDS011;38298;50.346;3.526;2023-09-07T01:52:00;6.43;;;3.70;;
52368;SDS011;38298;50.346;3.526;2023-09-07T01:54:26;6.47;;;3.33;;
52368;SDS011;38298;50.346;3.526;2023-09-07T01:56:52;6.90;;;3.78;;
52368;SDS011;38298;50.346;3.526;2023-09-07T01:59:18;7.55;;;3.45;;
52368;SDS011;38298;50.346;3.526;2023-09-07T02:01:44;4.15;;;3.00;;
52368;SDS011;38298;50.346;3.526;2023-09-07T02:04:10;6.40;;;2.95;;
52368;SDS011;38298;50.346;3.526;2023-09-07T02:06:36;6.90;;;2.97;;
52368;SDS011;38298;50.346;3.526;2023-09-07T02:09:02;8.23;;;3.35;;
52368;SDS011;38298;50.346;3.526;2023-09-07T02:11:29;6.70;;;3.10;;
52368;SDS011;38298;50.346;3.526;2023-09-07T02:13:55;6.82;;;3.20;;
52368;SDS011;38298;50.346;3.526;2023-09-07T02:16:21;5.13;;;3.13;;
52368;SDS011;38298;50.346;3.526;2023-09-07T02:18:48;7.45;;;3.20;;
52368;SDS011;38298;50.346;3.526;2023-09-07T02:21:14;5.95;;;2.65;;
52368;SDS011;38298;50.346;3.526;2023-09-07T02:23:40;6.03;;;3.47;;
52368;SDS011;38298;50.346;3.526;2023-09-07T02:26:07;4.90;;;2.92;;
52368;SDS011;38298;50.346;3.526;2023-09-07T02:28:32;8.32;;;2.90;;
52368;SDS011;38298;50.346;3.526;2023-09-07T02:31:05;4.50;;;3.05;;
52368;SDS011;38298;50.346;3.526;2023-09-07T02:33:31;3.97;;;3.03;;
52368;SDS011;38298;50.346;3.526;2023-09-07T02:35:57;4.65;;;3.00;;
52368;SDS011;38298;50.346;3.526;2023-09-07T02:38:24;7.22;;;3.03;;
52368;SDS011;38298;50.346;3.526;2023-09-07T02:40:50;6.65;;;2.92;;
52368;SDS011;38298;50.346;3.526;2023-09-07T02:43:16;4.30;;;3.20;;
52368;SDS011;38298;50.346;3.526;2023-09-07T02:45:42;7.25;;;3.00;;
52368;SDS011;38298;50.346;3.526;2023-09-07T02:48:08;7.50;;;3.55;;
52368;SDS011;38298;50.346;3.526;2023-09-07T02:50:34;5.38;;;2.50;;
52368;SDS011;38298;50.346;3.526;2023-09-07T02:53:00;4.72;;;2.78;;
52368;SDS011;38298;50.346;3.526;2023-09-07T02:55:27;6.28;;;2.95;;
52368;SDS011;38298;50.346;3.526;2023-09-07T02:57:53;3.83;;;2.88;;
52368;SDS011;38298;50.346;3.526;2023-09-07T03:00:20;3.95;;;2.80;;
52368;SDS011;38298;50.346;3.526;2023-09-07T03:02:47;6.38;;;2.95;;
52368;SDS011;38298;50.346;3.526;2023-09-07T03:05:14;6.72;;;3.35;;
52368;SDS011;38298;50.346;3.526;2023-09-07T03:07:40;6.50;;;3.20;;
52368;SDS011;38298;50.346;3.526;2023-09-07T03:10:06;5.20;;;2.95;;
52368;SDS011;38298;50.346;3.526;2023-09-07T03:12:32;5.18;;;3.17;;
52368;SDS011;38298;50.346;3.526;2023-09-07T03:14:58;5.82;;;3.53;;
52368;SDS011;38298;50.346;3.526;2023-09-07T03:17:28;4.93;;;3.13;;
52368;SDS011;38298;50.346;3.526;2023-09-07T03:19:54;7.10;;;3.28;;
52368;SDS011;38298;50.346;3.526;2023-09-07T03:22:20;8.50;;;3.50;;
52368;SDS011;38298;50.346;3.526;2023-09-07T03:24:46;6.40;;;3.65;;
52368;SDS011;38298;50.346;3.526;2023-09-07T03:27:12;6.88;;;3.05;;
52368;SDS011;38298;50.346;3.526;2023-09-07T03:29:38;4.20;;;2.75;;
52368;SDS011;38298;50.346;3.526;2023-09-07T03:32:04;7.03;;;3.10;;
52368;SDS011;38298;50.346;3.526;2023-09-07T03:34:31;6.22;;;3.25;;
52368;SDS011;38298;50.346;3.526;2023-09-07T03:36:57;5.45;;;3.25;;
52368;SDS011;38298;50.346;3.526;2023-09-07T03:39:23;5.47;;;3.03;;
52368;SDS011;38298;50.346;3.526;2023-09-07T03:41:49;5.80;;;3.03;;
52368;SDS011;38298;50.346;3.526;2023-09-07T03:44:15;6.00;;;3.22;;
52368;SDS011;38298;50.346;3.526;2023-09-07T03:46:41;5.50;;;3.08;;
52368;SDS011;38298;50.346;3.526;2023-09-07T03:49:07;7.57;;;3.53;;
52368;SDS011;38298;50.346;3.526;2023-09-07T03:51:33;6.70;;;3.03;;
52368;SDS011;38298;50.346;3.526;2023-09-07T03:53:59;5.30;;;3.00;;
52368;SDS011;38298;50.346;3.526;2023-09-07T03:56:25;8.55;;;3.78;;
52368;SDS011;38298;50.346;3.526;2023-09-07T03:58:52;7.05;;;3.58;;
52368;SDS011;38298;50.346;3.526;2023-09-07T04:01:18;7.90;;;4.15;;
52368;SDS011;38298;50.346;3.526;2023-09-07T04:03:44;8.55;;;3.60;;
52368;SDS011;38298;50.346;3.526;2023-09-07T04:06:10;8.68;;;3.55;;
52368;SDS011;38298;50.346;3.526;2023-09-07T04:08:35;6.82;;;3.50;;
52368;SDS011;38298;50.346;3.526;2023-09-07T04:11:05;7.40;;;3.50;;
52368;SDS011;38298;50.346;3.526;2023-09-07T04:13:31;9.53;;;3.43;;
52368;SDS011;38298;50.346;3.526;2023-09-07T04:15:57;4.85;;;2.97;;
52368;SDS011;38298;50.346;3.526;2023-09-07T04:18:23;7.88;;;3.42;;
52368;SDS011;38298;50.346;3.526;2023-09-07T04:20:49;7.57;;;3.55;;
52368;SDS011;38298;50.346;3.526;2023-09-07T04:23:16;6.65;;;3.40;;
52368;SDS011;38298;50.346;3.526;2023-09-07T04:25:42;5.20;;;3.50;;
52368;SDS011;38298;50.346;3.526;2023-09-07T04:28:08;4.72;;;3.05;;
52368;SDS011;38298;50.346;3.526;2023-09-07T04:30:38;8.60;;;3.40;;
52368;SDS011;38298;50.346;3.526;2023-09-07T04:33:04;7.38;;;3.72;;
52368;SDS011;38298;50.346;3.526;2023-09-07T04:35:30;5.35;;;3.65;;
52368;SDS011;38298;50.346;3.526;2023-09-07T04:37:57;6.78;;;4.10;;
52368;SDS011;38298;50.346;3.526;2023-09-07T04:40:24;6.50;;;3.45;;
52368;SDS011;38298;50.346;3.526;2023-09-07T04:42:50;5.85;;;3.45;;
52368;SDS011;38298;50.346;3.526;2023-09-07T04:45:16;10.18;;;3.85;;
52368;SDS011;38298;50.346;3.526;2023-09-07T04:47:42;5.75;;;3.95;;
52368;SDS011;38298;50.346;3.526;2023-09-07T04:50:08;6.82;;;3.85;;
52368;SDS011;38298;50.346;3.526;2023-09-07T04:52:34;6.07;;;3.78;;
52368;SDS011;38298;50.346;3.526;2023-09-07T04:55:01;6.97;;;3.97;;
52368;SDS011;38298;50.346;3.526;2023-09-07T04:57:27;7.32;;;3.85;;
52368;SDS011;38298;50.346;3.526;2023-09-07T04:59:53;8.48;;;3.90;;
52368;SDS011;38298;50.346;3.526;2023-09-07T05:02:19;6.90;;;3.75;;
52368;SDS011;38298;50.346;3.526;2023-09-07T05:04:45;4.85;;;3.58;;
52368;SDS011;38298;50.346;3.526;2023-09-07T05:07:11;9.18;;;3.97;;
52368;SDS011;38298;50.346;3.526;2023-09-07T05:09:37;7.13;;;3.92;;
52368;SDS011;38298;50.346;3.526;2023-09-07T05:12:03;7.90;;;4.55;;
52368;SDS011;38298;50.346;3.526;2023-09-07T05:14:30;7.15;;;4.47;;
52368;SDS011;38298;50.346;3.526;2023-09-07T05:16:56;7.68;;;3.95;;
52368;SDS011;38298;50.346;3.526;2023-09-07T05:19:23;12.55;;;4.40;;
52368;SDS011;38298;50.346;3.526;2023-09-07T05:21:49;10.90;;;4.20;;
52368;SDS011;38298;50.346;3.526;2023-09-07T05:24:15;6.40;;;4.22;;
52368;SDS011;38298;50.346;3.526;2023-09-07T05:26:44;12.55;;;4.68;;
52368;SDS011;38298;50.346;3.526;2023-09-07T05:29:12;34.08;;;4.40;;
52368;SDS011;38298;50.346;3.526;2023-09-07T05:31:38;8.50;;;4.28;;
52368;SDS011;38298;50.346;3.526;2023-09-07T05:34:04;12.75;;;4.10;;
52368;SDS011;38298;50.346;3.526;2023-09-07T05:36:30;9.80;;;4.35;;
52368;SDS011;38298;50.346;3.526;2023-09-07T05:38:56;10.45;;;4.68;;
52368;SDS011;38298;50.346;3.526;2023-09-07T05:41:22;9.73;;;4.47;;
52368;SDS011;38298;50.346;3.526;2023-09-07T05:43:48;14.65;;;4.20;;
52368;SDS011;38298;50.346;3.526;2023-09-07T05:46:14;10.27;;;4.45;;
52368;SDS011;38298;50.346;3.526;2023-09-07T05:48:40;13.52;;;5.07;;
52368;SDS011;38298;50.346;3.526;2023-09-07T05:51:06;15.48;;;4.93;;
52368;SDS011;38298;50.346;3.526;2023-09-07T05:53:32;16.15;;;4.45;;
52368;SDS011;38298;50.346;3.526;2023-09-07T05:55:58;15.50;;;4.80;;
52368;SDS011;38298;50.346;3.526;2023-09-07T05:58:24;13.60;;;4.93;;
52368;SDS011;38298;50.346;3.526;2023-09-07T06:00:50;16.90;;;4.53;;
52368;SDS011;38298;50.346;3.526;2023-09-07T06:03:16;12.10;;;4.60;;
52368;SDS011;38298;50.346;3.526;2023-09-07T06:05:42;13.00;;;4.20;;
52368;SDS011;38298;50.346;3.526;2023-09-07T06:08:09;12.32;;;4.75;;
52368;SDS011;38298;50.346;3.526;2023-09-07T06:10:36;10.65;;;4.32;;
52368;SDS011;38298;50.346;3.526;2023-09-07T06:13:03;9.38;;;4.55;;
52368;SDS011;38298;50.346;3.526;2023-09-07T06:15:29;13.23;;;5.05;;
52368;SDS011;38298;50.346;3.526;2023-09-07T06:17:55;13.05;;;5.43;;
52368;SDS011;38298;50.346;3.526;2023-09-07T06:20:22;11.77;;;4.95;;
52368;SDS011;38298;50.346;3.526;2023-09-07T06:22:48;11.10;;;5.00;;
52368;SDS011;38298;50.346;3.526;2023-09-07T06:25:14;19.20;;;5.22;;
52368;SDS011;38298;50.346;3.526;2023-09-07T06:27:40;10.70;;;5.22;;
52368;SDS011;38298;50.346;3.526;2023-09-07T06:30:07;8.52;;;4.57;;
52368;SDS011;38298;50.346;3.526;2023-09-07T06:32:33;9.82;;;4.53;;
52368;SDS011;38298;50.346;3.526;2023-09-07T06:34:59;10.30;;;4.90;;
52368;SDS011;38298;50.346;3.526;2023-09-07T06:37:25;8.70;;;4.85;;
52368;SDS011;38298;50.346;3.526;2023-09-07T06:39:51;10.52;;;4.85;;
52368;SDS011;38298;50.346;3.526;2023-09-07T06:42:17;6.35;;;4.10;;
52368;SDS011;38298;50.346;3.526;2023-09-07T06:44:43;9.45;;;4.25;;
52368;SDS011;38298;50.346;3.526;2023-09-07T06:47:10;9.07;;;4.78;;
52368;SDS011;38298;50.346;3.526;2023-09-07T06:49:37;7.28;;;4.47;;
52368;SDS011;38298;50.346;3.526;2023-09-07T06:52:03;10.85;;;4.63;;
52368;SDS011;38298;50.346;3.526;2023-09-07T06:54:29;9.00;;;4.18;;
52368;SDS011;38298;50.346;3.526;2023-09-07T06:56:55;8.05;;;4.72;;
52368;SDS011;38298;50.346;3.526;2023-09-07T06:59:21;11.32;;;4.45;;
52368;SDS011;38298;50.346;3.526;2023-09-07T07:01:47;7.60;;;3.97;;
52368;SDS011;38298;50.346;3.526;2023-09-07T07:04:13;9.95;;;4.57;;
52368;SDS011;38298;50.346;3.526;2023-09-07T07:06:39;10.35;;;4.63;;
52368;SDS011;38298;50.346;3.526;2023-09-07T07:09:05;6.95;;;4.57;;
52368;SDS011;38298;50.346;3.526;2023-09-07T07:11:31;13.30;;;5.50;;
52368;SDS011;38298;50.346;3.526;2023-09-07T07:13:57;11.18;;;4.97;;
52368;SDS011;38298;50.346;3.526;2023-09-07T07:16:23;12.18;;;4.97;;
52368;SDS011;38298;50.346;3.526;2023-09-07T07:18:49;9.80;;;4.57;;
52368;SDS011;38298;50.346;3.526;2023-09-07T07:21:15;10.82;;;5.28;;
52368;SDS011;38298;50.346;3.526;2023-09-07T07:23:41;11.05;;;4.20;;
52368;SDS011;38298;50.346;3.526;2023-09-07T07:26:07;14.02;;;4.60;;
52368;SDS011;38298;50.346;3.526;2023-09-07T07:28:34;8.38;;;5.03;;
52368;SDS011;38298;50.346;3.526;2023-09-07T07:31:06;9.20;;;4.40;;
52368;SDS011;38298;50.346;3.526;2023-09-07T07:33:32;6.78;;;4.15;;
52368;SDS011;38298;50.346;3.526;2023-09-07T07:35:58;8.50;;;4.40;;
52368;SDS011;38298;50.346;3.526;2023-09-07T07:38:24;9.93;;;4.50;;
52368;SDS011;38298;50.346;3.526;2023-09-07T07:40:50;9.40;;;4.80;;
52368;SDS011;38298;50.346;3.526;2023-09-07T07:43:18;17.00;;;5.78;;
52368;SDS011;38298;50.346;3.526;2023-09-07T07:45:44;9.45;;;5.15;;
52368;SDS011;38298;50.346;3.526;2023-09-07T07:48:10;14.38;;;4.97;;
52368;SDS011;38298;50.346;3.526;2023-09-07T07:50:39;12.45;;;4.50;;
52368;SDS011;38298;50.346;3.526;2023-09-07T07:53:05;8.50;;;4.38;;
52368;SDS011;38298;50.346;3.526;2023-09-07T07:55:35;5.18;;;3.58;;
52368;SDS011;38298;50.346;3.526;2023-09-07T07:58:04;7.55;;;4.30;;
52368;SDS011;38298;50.346;3.526;2023-09-07T08:00:31;18.77;;;4.60;;
52368;SDS011;38298;50.346;3.526;2023-09-07T08:02:57;10.93;;;4.15;;
52368;SDS011;38298;50.346;3.526;2023-09-07T08:05:23;16.88;;;4.68;;
52368;SDS011;38298;50.346;3.526;2023-09-07T08:07:48;6.35;;;4.32;;
52368;SDS011;38298;50.346;3.526;2023-09-07T08:10:18;8.25;;;4.55;;
52368;SDS011;38298;50.346;3.526;2023-09-07T08:12:44;5.40;;;3.60;;
52368;SDS011;38298;50.346;3.526;2023-09-07T08:15:10;11.65;;;4.03;;
52368;SDS011;38298;50.346;3.526;2023-09-07T08:17:36;11.00;;;4.03;;
52368;SDS011;38298;50.346;3.526;2023-09-07T08:20:02;9.68;;;4.20;;
52368;SDS011;38298;50.346;3.526;2023-09-07T08:22:28;11.27;;;4.32;;
52368;SDS011;38298;50.346;3.526;2023-09-07T08:24:54;7.85;;;4.40;;
52368;SDS011;38298;50.346;3.526;2023-09-07T08:27:21;7.63;;;4.03;;
52368;SDS011;38298;50.346;3.526;2023-09-07T08:29:47;8.73;;;3.83;;
52368;SDS011;38298;50.346;3.526;2023-09-07T08:32:16;9.63;;;3.83;;
52368;SDS011;38298;50.346;3.526;2023-09-07T08:34:42;13.60;;;3.97;;
52368;SDS011;38298;50.346;3.526;2023-09-07T08:37:08;6.25;;;4.00;;
52368;SDS011;38298;50.346;3.526;2023-09-07T08:39:34;6.35;;;3.60;;
52368;SDS011;38298;50.346;3.526;2023-09-07T08:42:01;5.07;;;3.20;;
52368;SDS011;38298;50.346;3.526;2023-09-07T08:44:29;8.25;;;2.78;;
52368;SDS011;38298;50.346;3.526;2023-09-07T08:46:55;5.38;;;2.55;;
52368;SDS011;38298;50.346;3.526;2023-09-07T08:49:23;2.38;;;2.13;;
52368;SDS011;38298;50.346;3.526;2023-09-07T08:51:49;3.17;;;2.28;;
52368;SDS011;38298;50.346;3.526;2023-09-07T08:54:16;2.40;;;2.08;;
52368;SDS011;38298;50.346;3.526;2023-09-07T08:56:43;5.72;;;2.45;;
52368;SDS011;38298;50.346;3.526;2023-09-07T08:59:10;2.85;;;2.20;;
52368;SDS011;38298;50.346;3.526;2023-09-07T09:01:36;6.18;;;2.45;;
52368;SDS011;38298;50.346;3.526;2023-09-07T09:04:02;3.97;;;2.53;;
52368;SDS011;38298;50.346;3.526;2023-09-07T09:06:28;5.78;;;2.45;;
52368;SDS011;38298;50.346;3.526;2023-09-07T09:08:55;3.38;;;2.22;;
52368;SDS011;38298;50.346;3.526;2023-09-07T09:11:22;7.40;;;2.30;;
52368;SDS011;38298;50.346;3.526;2023-09-07T09:13:48;3.47;;;2.05;;
52368;SDS011;38298;50.346;3.526;2023-09-07T09:16:15;2.78;;;2.10;;
52368;SDS011;38298;50.346;3.526;2023-09-07T09:18:48;2.72;;;2.50;;
52368;SDS011;38298;50.346;3.526;2023-09-07T09:21:16;2.83;;;2.00;;
52368;SDS011;38298;50.346;3.526;2023-09-07T09:23:42;5.07;;;2.00;;
52368;SDS011;38298;50.346;3.526;2023-09-07T09:26:08;7.22;;;2.22;;
52368;SDS011;38298;50.346;3.526;2023-09-07T09:28:35;3.08;;;2.15;;
52368;SDS011;38298;50.346;3.526;2023-09-07T09:31:02;3.40;;;2.25;;
52368;SDS011;38298;50.346;3.526;2023-09-07T09:33:31;4.85;;;2.03;;
52368;SDS011;38298;50.346;3.526;2023-09-07T09:36:00;2.63;;;2.30;;
52368;SDS011;38298;50.346;3.526;2023-09-07T09:38:27;5.20;;;2.35;;
52368;SDS011;38298;50.346;3.526;2023-09-07T09:41:03;4.78;;;2.10;;
52368;SDS011;38298;50.346;3.526;2023-09-07T09:43:32;2.63;;;2.13;;
52368;SDS011;38298;50.346;3.526;2023-09-07T09:45:58;2.20;;;1.90;;
52368;SDS011;38298;50.346;3.526;2023-09-07T09:48:25;3.67;;;2.75;;
52368;SDS011;38298;50.346;3.526;2023-09-07T09:50:53;2.33;;;1.98;;
52368;SDS011;38298;50.346;3.526;2023-09-07T09:53:19;3.70;;;2.30;;
52368;SDS011;38298;50.346;3.526;2023-09-07T09:55:48;3.05;;;2.20;;
52368;SDS011;38298;50.346;3.526;2023-09-07T09:58:15;5.45;;;2.38;;
52368;SDS011;38298;50.346;3.526;2023-09-07T10:00:43;5.47;;;2.42;;
52368;SDS011;38298;50.346;3.526;2023-09-07T10:03:11;4.72;;;1.90;;
52368;SDS011;38298;50.346;3.526;2023-09-07T10:05:39;5.70;;;2.10;;
52368;SDS011;38298;50.346;3.526;2023-09-07T10:08:15;5.65;;;2.10;;
52368;SDS011;38298;50.346;3.526;2023-09-07T10:10:41;2.20;;;2.00;;
52368;SDS011;38298;50.346;3.526;2023-09-07T10:13:07;8.15;;;2.20;;
52368;SDS011;38298;50.346;3.526;2023-09-07T10:15:34;5.82;;;2.38;;
52368;SDS011;38298;50.346;3.526;2023-09-07T10:20:34;3.05;;;2.28;;
52368;SDS011;38298;50.346;3.526;2023-09-07T10:23:04;4.82;;;2.17;;
52368;SDS011;38298;50.346;3.526;2023-09-07T10:25:30;3.38;;;2.17;;
52368;SDS011;38298;50.346;3.526;2023-09-07T10:27:57;5.47;;;2.22;;
52368;SDS011;38298;50.346;3.526;2023-09-07T10:30:24;3.83;;;2.28;;
52368;SDS011;38298;50.346;3.526;2023-09-07T10:32:50;2.13;;;1.92;;
52368;SDS011;38298;50.346;3.526;2023-09-07T10:35:18;10.23;;;2.60;;
52368;SDS011;38298;50.346;3.526;2023-09-07T10:37:47;3.47;;;2.53;;
52368;SDS011;38298;50.346;3.526;2023-09-07T10:40:18;4.28;;;2.03;;
52368;SDS011;38298;50.346;3.526;2023-09-07T10:42:44;4.47;;;2.28;;
52368;SDS011;38298;50.346;3.526;2023-09-07T10:45:11;6.07;;;2.10;;
52368;SDS011;38298;50.346;3.526;2023-09-07T10:47:44;3.63;;;1.80;;
52368;SDS011;38298;50.346;3.526;2023-09-07T10:50:11;2.58;;;2.10;;
52368;SDS011;38298;50.346;3.526;2023-09-07T10:52:38;3.33;;;2.20;;
52368;SDS011;38298;50.346;3.526;2023-09-07T10:55:05;4.90;;;2.20;;
52368;SDS011;38298;50.346;3.526;2023-09-07T10:57:31;4.93;;;1.80;;
52368;SDS011;38298;50.346;3.526;2023-09-07T10:59:57;4.72;;;2.08;;
52368;SDS011;38298;50.346;3.526;2023-09-07T11:02:23;6.10;;;2.33;;
52368;SDS011;38298;50.346;3.526;2023-09-07T11:04:49;3.03;;;2.03;;
52368;SDS011;38298;50.346;3.526;2023-09-07T11:07:15;3.17;;;1.80;;
52368;SDS011;38298;50.346;3.526;2023-09-07T11:09:42;6.55;;;1.77;;
52368;SDS011;38298;50.346;3.526;2023-09-07T11:12:13;2.85;;;2.00;;
52368;SDS011;38298;50.346;3.526;2023-09-07T11:14:40;2.70;;;2.10;;
52368;SDS011;38298;50.346;3.526;2023-09-07T11:17:06;3.15;;;2.10;;
52368;SDS011;38298;50.346;3.526;2023-09-07T11:19:34;2.67;;;2.40;;
52368;SDS011;38298;50.346;3.526;2023-09-07T11:22:00;2.65;;;1.92;;
52368;SDS011;38298;50.346;3.526;2023-09-07T11:24:29;3.88;;;1.92;;
52368;SDS011;38298;50.346;3.526;2023-09-07T11:26:55;2.13;;;1.70;;
52368;SDS011;38298;50.346;3.526;2023-09-07T11:29:24;2.90;;;2.00;;
52368;SDS011;38298;50.346;3.526;2023-09-07T11:31:50;5.47;;;1.90;;
52368;SDS011;38298;50.346;3.526;2023-09-07T11:34:16;3.80;;;1.88;;
52368;SDS011;38298;50.346;3.526;2023-09-07T11:36:42;7.65;;;2.17;;
52368;SDS011;38298;50.346;3.526;2023-09-07T11:39:09;4.07;;;1.83;;
52368;SDS011;38298;50.346;3.526;2023-09-07T11:41:39;4.85;;;2.13;;
52368;SDS011;38298;50.346;3.526;2023-09-07T11:44:05;3.47;;;1.65;;
52368;SDS011;38298;50.346;3.526;2023-09-07T11:46:31;3.45;;;2.28;;
52368;SDS011;38298;50.346;3.526;2023-09-07T11:48:57;3.17;;;1.70;;
52368;SDS011;38298;50.346;3.526;2023-09-07T11:51:24;4.10;;;1.80;;
52368;SDS011;38298;50.346;3.526;2023-09-07T11:53:50;4.00;;;1.90;;
52368;SDS011;38298;50.346;3.526;2023-09-07T11:56:16;3.03;;;1.80;;
52368;SDS011;38298;50.346;3.526;2023-09-07T11:58:42;3.33;;;1.60;;
52368;SDS011;38298;50.346;3.526;2023-09-07T12:01:09;9.40;;;2.00;;
52368;SDS011;38298;50.346;3.526;2023-09-07T12:03:35;4.18;;;1.70;;
52368;SDS011;38298;50.346;3.526;2023-09-07T12:06:01;3.47;;;1.90;;
52368;SDS011;38298;50.346;3.526;2023-09-07T12:08:27;3.58;;;1.55;;
52368;SDS011;38298;50.346;3.526;2023-09-07T12:10:53;6.38;;;1.80;;
52368;SDS011;38298;50.346;3.526;2023-09-07T12:13:19;5.93;;;1.90;;
52368;SDS011;38298;50.346;3.526;2023-09-07T12:15:45;2.13;;;1.80;;
52368;SDS011;38298;50.346;3.526;2023-09-07T12:18:12;3.85;;;1.77;;
52368;SDS011;38298;50.346;3.526;2023-09-07T12:20:38;3.97;;;1.63;;
52368;SDS011;38298;50.346;3.526;2023-09-07T12:23:04;5.03;;;1.70;;
52368;SDS011;38298;50.346;3.526;2023-09-07T12:25:30;2.90;;;1.70;;
52368;SDS011;38298;50.346;3.526;2023-09-07T12:27:57;2.60;;;1.60;;
52368;SDS011;38298;50.346;3.526;2023-09-07T12:30:23;2.28;;;1.60;;
52368;SDS011;38298;50.346;3.526;2023-09-07T12:32:49;3.13;;;1.80;;
52368;SDS011;38298;50.346;3.526;2023-09-07T12:35:15;3.10;;;1.83;;
52368;SDS011;38298;50.346;3.526;2023-09-07T12:37:41;5.15;;;1.80;;
52368;SDS011;38298;50.346;3.526;2023-09-07T12:40:10;2.45;;;1.67;;
52368;SDS011;38298;50.346;3.526;2023-09-07T12:42:41;4.03;;;1.80;;
52368;SDS011;38298;50.346;3.526;2023-09-07T12:45:10;1.77;;;1.38;;
52368;SDS011;38298;50.346;3.526;2023-09-07T12:47:38;5.90;;;1.50;;
52368;SDS011;38298;50.346;3.526;2023-09-07T12:50:04;3.08;;;1.70;;
52368;SDS011;38298;50.346;3.526;2023-09-07T12:52:32;4.93;;;1.33;;
52368;SDS011;38298;50.346;3.526;2023-09-07T12:54:59;3.88;;;1.48;;
52368;SDS011;38298;50.346;3.526;2023-09-07T12:57:25;7.03;;;1.60;;
52368;SDS011;38298;50.346;3.526;2023-09-07T12:59:51;3.22;;;1.38;;
52368;SDS011;38298;50.346;3.526;2023-09-07T13:02:17;5.03;;;1.42;;
52368;SDS011;38298;50.346;3.526;2023-09-07T13:04:43;5.03;;;1.27;;
52368;SDS011;38298;50.346;3.526;2023-09-07T13:07:09;5.60;;;1.50;;
52368;SDS011;38298;50.346;3.526;2023-09-07T13:09:35;1.73;;;1.58;;
52368;SDS011;38298;50.346;3.526;2023-09-07T13:12:01;4.60;;;1.20;;
52368;SDS011;38298;50.346;3.526;2023-09-07T13:14:27;1.92;;;1.48;;
52368;SDS011;38298;50.346;3.526;2023-09-07T13:16:53;11.32;;;1.77;;
52368;SDS011;38298;50.346;3.526;2023-09-07T13:19:19;1.75;;;1.30;;
52368;SDS011;38298;50.346;3.526;2023-09-07T13:21:45;3.95;;;1.65;;
52368;SDS011;38298;50.346;3.526;2023-09-07T13:24:11;2.90;;;1.45;;
52368;SDS011;38298;50.346;3.526;2023-09-07T13:26:37;2.80;;;1.60;;
52368;SDS011;38298;50.346;3.526;2023-09-07T13:29:03;4.35;;;1.63;;
52368;SDS011;38298;50.346;3.526;2023-09-07T13:31:29;7.13;;;1.67;;
52368;SDS011;38298;50.346;3.526;2023-09-07T13:33:58;2.10;;;1.33;;
52368;SDS011;38298;50.346;3.526;2023-09-07T13:36:24;1.70;;;1.20;;
52368;SDS011;38298;50.346;3.526;2023-09-07T13:38:50;3.58;;;1.40;;
52368;SDS011;38298;50.346;3.526;2023-09-07T13:41:16;4.78;;;1.40;;
52368;SDS011;38298;50.346;3.526;2023-09-07T13:43:42;1.60;;;1.08;;
52368;SDS011;38298;50.346;3.526;2023-09-07T13:46:08;4.78;;;1.48;;
52368;SDS011;38298;50.346;3.526;2023-09-07T13:48:34;3.78;;;1.40;;
52368;SDS011;38298;50.346;3.526;2023-09-07T13:51:00;2.22;;;1.15;;
52368;SDS011;38298;50.346;3.526;2023-09-07T13:53:26;3.45;;;1.60;;
52368;SDS011;38298;50.346;3.526;2023-09-07T13:55:52;2.60;;;1.40;;
52368;SDS011;38298;50.346;3.526;2023-09-07T13:58:18;1.58;;;1.35;;
52368;SDS011;38298;50.346;3.526;2023-09-07T14:00:44;3.40;;;1.30;;
52368;SDS011;38298;50.346;3.526;2023-09-07T14:03:11;1.73;;;1.17;;
52368;SDS011;38298;50.346;3.526;2023-09-07T14:05:37;3.15;;;1.50;;
52368;SDS011;38298;50.346;3.526;2023-09-07T14:08:04;3.28;;;1.20;;
52368;SDS011;38298;50.346;3.526;2023-09-07T14:10:30;2.88;;;1.63;;
52368;SDS011;38298;50.346;3.526;2023-09-07T14:12:56;4.18;;;1.35;;
52368;SDS011;38298;50.346;3.526;2023-09-07T14:15:22;3.28;;;1.40;;
52368;SDS011;38298;50.346;3.526;2023-09-07T14:17:51;3.58;;;1.20;;
52368;SDS011;38298;50.346;3.526;2023-09-07T14:20:17;3.63;;;1.08;;
52368;SDS011;38298;50.346;3.526;2023-09-07T14:22:43;1.02;;;0.95;;
52368;SDS011;38298;50.346;3.526;2023-09-07T14:25:09;3.13;;;0.88;;
52368;SDS011;38298;50.346;3.526;2023-09-07T14:27:35;1.40;;;0.70;;
52368;SDS011;38298;50.346;3.526;2023-09-07T14:30:01;1.85;;;0.60;;
52368;SDS011;38298;50.346;3.526;2023-09-07T14:32:27;2.55;;;0.73;;
52368;SDS011;38298;50.346;3.526;2023-09-07T14:34:53;2.55;;;0.47;;
52368;SDS011;38298;50.346;3.526;2023-09-07T14:37:19;0.85;;;0.60;;
52368;SDS011;38298;50.346;3.526;2023-09-07T14:39:45;1.85;;;0.70;;
52368;SDS011;38298;50.346;3.526;2023-09-07T14:42:14;4.18;;;0.88;;
52368;SDS011;38298;50.346;3.526;2023-09-07T14:44:42;2.70;;;0.70;;